الصفحة الرئيسية
METAR-TAF:

METAR-TAF

مطار :

مطار واغادوغو

واغادوغو, بوركينا فاسو

دائرة عرض: 12-21N, خط طول: 001-31W, ارتفاع: 316 متر

مراقبة الطقس الحالي

تاريخ ووقت الإصدار 56 دقيقة قبل الساعة 12:00UTC
ريح 7 عقدة من الشمال الشرقي, الاتجاه يتراوح بين الشمال و الشرق
درجة الحرارة 35°درجة مئوية
الرطوبة 13%
ضغط 1012 hPa
الرؤية 10 كم أو أكثر
الغيوم لا تقل 1500 م ولا وجود لمزنة ركامية السحاب الأسود

METAR: DFFD 201200Z 04007KT 360V090 CAVOK 35/03 Q1012 NOSIG

زمن: 12:56 (12:56 UTC)

توقعات

تاريخ ووقت الإصدار 1ساعة و 56 دقيقة قبل الساعة 11:00UTC
التوقعات صالحة من20 الساعة 12 UTC إلى 21 الساعة 18 UTC
ريح 8 عقدة من الشمال/الشمال الشرقي
الرؤية 10 كم أو أكثر
الغيوم لا تقل 1500 م ولا وجود لمزنة ركامية السحاب الأسود
مؤقت
من 20 الساعة 18 UTC إلى 20 الساعة 21 UTC
الرؤية: 4000 متر
العجاج
مؤقت
من 21 الساعة 06 UTC إلى 21 الساعة 10 UTC
الرؤية: 4000 متر
العجاج

TAF: DFFD 201100Z 2012/2118 02008KT CAVOK TEMPO 2018/2021 4000 HZ TEMPO 2106/2110 4000 HZ

أرصاد الطقس والتوقعات من أكثر من 4000 مطار (تقارير الطقس للمطار METAR والتنبؤ بالطقس بالمطارTAF).

المحطات المتاحة هي النقط الصفراء والحمراء على الخريطة.

حرك المؤشر فوق النقطة لمعرفة اسم المحطة.

ثم انقر لمعرفة أرصاد وتوقعات الطقس.

لتغيير الخارطة: اضغط على الأزرار الخضراء مع رمز الصليب الأسود للتكبير. على الزر الأخضر مع شرطة للتصغير، أو على الأسهم الخضراء للخرائط المجاورة.


METAR-TAF: